createdAt,value
2022-10-21T00:00:01.472Z,58.6
2022-10-21T00:05:01.914Z,57.6
2022-10-21T00:10:01.457Z,58.0
2022-10-21T00:15:01.519Z,58.3
2022-10-21T00:25:06.617Z,58.8
2022-10-21T00:30:06.742Z,58.9
2022-10-21T00:35:01.764Z,59.0
2022-10-21T00:40:06.409Z,59.0
2022-10-21T00:45:06.628Z,58.9
2022-10-21T00:50:06.408Z,58.8
2022-10-21T01:10:06.412Z,60.6
2022-10-21T01:15:04.442Z,61.9
2022-10-21T01:20:01.222Z,61.6
2022-10-21T01:25:01.358Z,61.1
2022-10-21T01:40:01.802Z,70.8
2022-10-21T01:45:13.049Z,66.0
2022-10-21T02:00:01.188Z,57.2
2022-10-21T02:05:06.016Z,58.8
2022-10-21T02:10:01.027Z,59.2
2022-10-21T02:15:01.091Z,59.5
2022-10-21T02:20:01.050Z,59.6
2022-10-21T02:25:07.059Z,59.9
2022-10-21T02:30:03.084Z,59.7
2022-10-21T02:35:06.052Z,59.2
2022-10-21T02:50:01.811Z,65.6
2022-10-21T02:55:06.687Z,65.3
2022-10-21T03:00:01.643Z,66.7
2022-10-21T03:05:01.769Z,67.1
2022-10-21T03:10:06.642Z,65.4
2022-10-21T03:15:01.724Z,64.5
2022-10-21T03:20:07.596Z,65.0
2022-10-21T03:25:06.763Z,64.1
2022-10-21T03:30:01.627Z,63.0
2022-10-21T03:35:01.683Z,64.5
2022-10-21T03:40:01.589Z,66.0
2022-10-21T03:45:01.619Z,66.8
2022-10-21T03:50:08.733Z,68.9
2022-10-21T03:55:01.690Z,71.1
2022-10-21T04:00:07.945Z,72.5
2022-10-21T04:05:01.655Z,71.2
2022-10-21T04:10:06.711Z,69.0
2022-10-21T04:15:02.890Z,66.1
2022-10-21T04:20:01.579Z,67.6
2022-10-21T04:25:05.044Z,65.2
2022-10-21T04:30:06.636Z,65.4
2022-10-21T04:35:01.755Z,65.5
2022-10-21T04:40:01.564Z,66.1
2022-10-21T04:45:01.633Z,62.8
2022-10-21T04:55:06.725Z,64.1
2022-10-21T05:00:02.559Z,65.3
2022-10-21T05:10:06.572Z,65.8
2022-10-21T05:15:06.653Z,64.9
2022-10-21T05:20:01.477Z,64.0
2022-10-21T05:25:01.541Z,63.2
2022-10-21T05:30:01.598Z,63.0
2022-10-21T05:35:01.557Z,61.8
2022-10-21T05:40:01.477Z,62.7
2022-10-21T05:45:01.553Z,63.0
2022-10-21T05:50:01.594Z,64.0
2022-10-21T05:55:06.607Z,65.2
2022-10-21T06:00:06.542Z,66.0
2022-10-21T06:05:01.527Z,66.4
2022-10-21T06:10:02.660Z,66.4
2022-10-21T06:15:02.267Z,65.2
2022-10-21T06:20:01.495Z,63.2
2022-10-21T06:25:01.659Z,61.7
2022-10-21T06:30:01.507Z,59.6
2022-10-21T06:35:01.617Z,58.5
2022-10-21T06:40:06.489Z,58.2
2022-10-21T06:50:01.517Z,59.4
2022-10-21T06:55:01.737Z,59.8
2022-10-21T07:00:03.744Z,61.6
2022-10-21T07:05:01.548Z,61.1
2022-10-21T07:10:01.571Z,61.0
2022-10-21T07:15:02.055Z,60.0
2022-10-21T07:20:01.448Z,59.3
2022-10-21T07:30:01.507Z,57.1
2022-10-21T07:35:06.709Z,55.6
2022-10-21T07:40:01.435Z,55.8
2022-10-21T07:50:01.495Z,57.7
2022-10-21T07:55:06.583Z,58.8
2022-10-21T08:00:01.416Z,58.6
2022-10-21T08:05:01.478Z,58.4
2022-10-21T08:10:06.441Z,57.1
2022-10-21T08:15:01.568Z,56.2
2022-10-21T08:25:01.946Z,54.4
2022-10-21T08:30:01.437Z,54.5
2022-10-21T08:35:01.501Z,55.4
2022-10-21T08:40:06.364Z,55.7
2022-10-21T08:45:01.491Z,57.4
2022-10-21T08:50:01.412Z,56.6
2022-10-21T08:55:01.506Z,56.0
2022-10-21T09:00:01.411Z,55.4
2022-10-21T09:05:01.404Z,54.9
2022-10-21T09:10:01.403Z,53.5
2022-10-21T09:15:01.653Z,54.7
2022-10-21T09:35:01.931Z,59.3
2022-10-21T09:40:02.025Z,65.0
2022-10-21T09:45:02.072Z,63.0
2022-10-21T09:50:08.387Z,61.0
2022-10-21T09:55:01.815Z,60.6
2022-10-21T10:00:01.723Z,59.7
2022-10-21T10:05:01.919Z,56.1
2022-10-21T10:20:11.587Z,54.2
2022-10-21T10:25:02.549Z,62.0
2022-10-21T10:40:02.055Z,55.8
2022-10-21T11:00:02.530Z,53.4
2022-10-21T11:05:02.161Z,54.1
2022-10-21T11:20:01.723Z,53.6
2022-10-21T11:25:01.397Z,52.8
2022-10-21T11:30:01.390Z,53.7
2022-10-21T11:35:01.517Z,52.3
2022-10-21T11:40:01.889Z,51.6
2022-10-21T11:45:01.452Z,50.9
2022-10-21T12:00:01.214Z,52.8
2022-10-21T12:20:01.663Z,67.8
2022-10-21T12:25:01.334Z,61.8
2022-10-21T12:40:01.913Z,48.4
2022-10-21T13:00:01.243Z,48.6
2022-10-21T13:05:01.062Z,60.9
2022-10-21T13:10:00.993Z,57.4
2022-10-21T13:15:01.068Z,56.0
2022-10-21T13:30:01.563Z,47.6
2022-10-21T13:35:01.717Z,48.8
2022-10-21T13:40:01.438Z,49.1
2022-10-21T13:45:06.588Z,49.4
2022-10-21T14:00:01.869Z,47.6
2022-10-21T14:05:01.810Z,48.3
2022-10-21T14:10:06.973Z,48.7
2022-10-21T14:15:01.903Z,49.2
2022-10-21T14:20:01.926Z,49.7
2022-10-21T14:25:01.896Z,50.1
2022-10-21T14:30:01.709Z,50.3
2022-10-21T14:35:01.782Z,50.2
2022-10-21T14:50:02.865Z,52.6
2022-10-21T14:55:06.580Z,50.4
2022-10-21T15:00:01.372Z,50.5
2022-10-21T15:05:02.021Z,51.2
2022-10-21T15:20:02.000Z,54.2
2022-10-21T15:25:01.838Z,53.1
2022-10-21T15:30:01.768Z,53.4
2022-10-21T15:35:02.918Z,53.3
2022-10-21T15:50:01.414Z,50.6
2022-10-21T15:55:01.288Z,53.3
2022-10-21T16:00:06.301Z,53.8
2022-10-21T16:20:01.906Z,54.2
2022-10-21T16:25:01.647Z,53.8
2022-10-21T16:30:01.580Z,60.3
2022-10-21T16:35:01.701Z,59.0
2022-10-21T16:40:01.658Z,58.2
2022-10-21T16:45:01.701Z,58.9
2022-10-21T16:50:11.642Z,59.1
2022-10-21T16:55:02.786Z,55.0
2022-10-21T17:00:01.669Z,55.0
2022-10-21T17:05:01.753Z,55.1
2022-10-21T17:10:01.564Z,54.5
2022-10-21T17:15:01.689Z,53.8
2022-10-21T17:20:01.637Z,53.7
2022-10-21T17:25:01.674Z,53.3
2022-10-21T17:30:01.671Z,52.5
2022-10-21T17:40:01.791Z,56.2
2022-10-21T17:45:04.999Z,56.4
2022-10-21T17:50:01.630Z,56.7
2022-10-21T17:55:01.639Z,57.4
2022-10-21T18:05:01.778Z,55.3
2022-10-21T18:10:02.729Z,57.0
2022-10-21T18:15:06.696Z,58.4
2022-10-21T18:20:01.581Z,60.2
2022-10-21T18:25:01.750Z,66.1
2022-10-21T18:30:01.620Z,65.6
2022-10-21T18:35:06.692Z,64.8
2022-10-21T18:40:01.605Z,64.1
2022-10-21T18:45:02.723Z,62.4
2022-10-21T18:50:01.934Z,56.8
2022-10-21T18:55:01.772Z,56.9
2022-10-21T19:00:01.615Z,57.0
2022-10-21T19:05:02.903Z,57.0
2022-10-21T19:10:01.607Z,61.3
2022-10-21T19:15:01.723Z,61.2
2022-10-21T19:20:01.561Z,61.9
2022-10-21T19:25:01.597Z,62.5
2022-10-21T19:30:01.566Z,61.7
2022-10-21T19:40:01.666Z,55.8
2022-10-21T19:45:01.656Z,54.3
2022-10-21T19:50:01.706Z,52.6
2022-10-21T19:55:02.643Z,51.9
2022-10-21T20:00:01.542Z,51.8
2022-10-21T20:10:01.593Z,52.5
2022-10-21T20:15:01.497Z,53.0
2022-10-21T20:20:01.507Z,53.4
2022-10-21T20:25:01.560Z,53.1
2022-10-21T20:30:01.453Z,52.4
2022-10-21T20:35:01.567Z,51.4
2022-10-21T20:40:01.553Z,50.8
2022-10-21T20:45:01.557Z,50.7
2022-10-21T20:55:01.505Z,51.2
2022-10-21T21:00:01.474Z,51.7
2022-10-21T21:05:01.472Z,55.0
2022-10-21T21:10:03.841Z,54.1
2022-10-21T21:15:01.465Z,54.0
2022-10-21T21:20:01.789Z,53.6
2022-10-21T21:25:01.608Z,53.6
2022-10-21T21:30:01.568Z,50.6
2022-10-21T21:35:06.297Z,51.4
2022-10-21T21:40:01.459Z,51.8
2022-10-21T21:45:01.525Z,52.4
2022-10-21T21:50:01.416Z,52.0
2022-10-21T21:55:01.446Z,51.8
2022-10-21T22:00:01.458Z,52.2
2022-10-21T22:05:01.515Z,51.5
2022-10-21T22:10:01.393Z,50.9
2022-10-21T22:15:01.496Z,50.3
2022-10-21T22:20:01.563Z,50.1
2022-10-21T22:25:01.811Z,49.2
2022-10-21T22:30:01.391Z,48.9
2022-10-21T22:35:02.506Z,49.1
2022-10-21T22:40:01.413Z,49.3
2022-10-21T22:45:01.411Z,49.0
2022-10-21T22:55:01.496Z,49.4
2022-10-21T23:00:02.521Z,49.5
2022-10-21T23:05:01.537Z,49.6
2022-10-21T23:10:02.511Z,49.5
2022-10-21T23:15:01.454Z,49.5
2022-10-21T23:20:06.705Z,49.4
2022-10-21T23:25:01.555Z,49.2
2022-10-21T23:30:01.356Z,49.3
2022-10-21T23:35:06.456Z,49.3
2022-10-21T23:40:01.819Z,49.0
2022-10-21T23:45:01.429Z,50.0
2022-10-21T23:50:01.360Z,49.7
2022-10-21T23:55:01.491Z,49.8
